sensor_id;sensor_type;location;lat;lon;timestamp;pressure;altitude;pressure_sealevel;temperature;humidity
1616;BME280;801;47.982;7.810;2023-06-10T00:00:00;98123.69;;;23.50;68.01
1616;BME280;801;47.982;7.810;2023-06-10T00:02:26;98122.44;;;23.63;69.11
1616;BME280;801;47.982;7.810;2023-06-10T00:04:53;98127.38;;;23.73;68.57
1616;BME280;801;47.982;7.810;2023-06-10T00:07:21;98122.06;;;23.80;68.97
1616;BME280;801;47.982;7.810;2023-06-10T00:09:48;98130.00;;;23.70;70.86
1616;BME280;801;47.982;7.810;2023-06-10T00:12:15;98122.53;;;23.67;71.69
1616;BME280;801;47.982;7.810;2023-06-10T00:14:42;98129.28;;;23.53;73.75
1616;BME280;801;47.982;7.810;2023-06-10T00:17:08;98123.63;;;23.30;76.27
1616;BME280;801;47.982;7.810;2023-06-10T00:19:35;98126.53;;;23.37;77.46
1616;BME280;801;47.982;7.810;2023-06-10T00:22:02;98132.91;;;23.41;77.51
1616;BME280;801;47.982;7.810;2023-06-10T00:24:31;98129.19;;;23.50;76.53
1616;BME280;801;47.982;7.810;2023-06-10T00:26:58;98124.41;;;23.47;77.27
1616;BME280;801;47.982;7.810;2023-06-10T00:29:24;98122.75;;;23.42;78.23
1616;BME280;801;47.982;7.810;2023-06-10T00:31:51;98125.50;;;23.26;79.41
1616;BME280;801;47.982;7.810;2023-06-10T00:34:19;98124.28;;;23.08;79.95
1616;BME280;801;47.982;7.810;2023-06-10T00:36:46;98125.59;;;23.14;80.56
1616;BME280;801;47.982;7.810;2023-06-10T00:39:12;98114.19;;;23.12;80.17
1616;BME280;801;47.982;7.810;2023-06-10T00:41:40;98121.53;;;23.08;80.86
1616;BME280;801;47.982;7.810;2023-06-10T00:44:06;98127.38;;;23.06;80.98
1616;BME280;801;47.982;7.810;2023-06-10T00:46:33;98121.69;;;22.99;81.69
1616;BME280;801;47.982;7.810;2023-06-10T00:49:01;98125.31;;;22.87;83.14
1616;BME280;801;47.982;7.810;2023-06-10T00:51:27;98123.72;;;22.86;83.77
1616;BME280;801;47.982;7.810;2023-06-10T00:53:54;98128.94;;;22.75;84.50
1616;BME280;801;47.982;7.810;2023-06-10T00:56:21;98121.78;;;22.71;85.14
1616;BME280;801;47.982;7.810;2023-06-10T00:58:50;98130.84;;;22.59;85.76
1616;BME280;801;47.982;7.810;2023-06-10T01:01:16;98128.88;;;22.44;86.86
1616;BME280;801;47.982;7.810;2023-06-10T01:03:45;98134.53;;;22.35;87.91
1616;BME280;801;47.982;7.810;2023-06-10T01:06:17;98128.84;;;22.28;88.36
1616;BME280;801;47.982;7.810;2023-06-10T01:08:52;98132.53;;;22.07;89.00
1616;BME280;801;47.982;7.810;2023-06-10T01:11:27;98122.38;;;22.08;90.60
1616;BME280;801;47.982;7.810;2023-06-10T01:13:58;98129.91;;;22.11;89.97
1616;BME280;801;47.982;7.810;2023-06-10T01:16:25;98125.94;;;22.08;90.14
1616;BME280;801;47.982;7.810;2023-06-10T01:18:52;98132.44;;;22.04;90.99
1616;BME280;801;47.982;7.810;2023-06-10T01:21:21;98134.97;;;21.96;91.91
1616;BME280;801;47.982;7.810;2023-06-10T01:23:49;98137.59;;;21.93;92.03
1616;BME280;801;47.982;7.810;2023-06-10T01:26:16;98129.28;;;21.89;91.89
1616;BME280;801;47.982;7.810;2023-06-10T01:28:46;98135.09;;;21.88;92.72
1616;BME280;801;47.982;7.810;2023-06-10T01:31:18;98133.09;;;21.72;93.29
1616;BME280;801;47.982;7.810;2023-06-10T01:33:50;98135.97;;;21.64;92.40
1616;BME280;801;47.982;7.810;2023-06-10T01:36:19;98137.66;;;21.56;92.25
1616;BME280;801;47.982;7.810;2023-06-10T01:38:49;98139.03;;;21.50;92.77
1616;BME280;801;47.982;7.810;2023-06-10T01:41:17;98141.44;;;21.51;92.69
1616;BME280;801;47.982;7.810;2023-06-10T01:43:45;98153.16;;;21.52;91.54
1616;BME280;801;47.982;7.810;2023-06-10T01:46:11;98148.13;;;21.29;93.44
1616;BME280;801;47.982;7.810;2023-06-10T01:48:38;98139.94;;;21.29;92.98
1616;BME280;801;47.982;7.810;2023-06-10T01:51:05;98149.53;;;21.23;92.75
1616;BME280;801;47.982;7.810;2023-06-10T01:53:31;98150.88;;;21.29;91.84
1616;BME280;801;47.982;7.810;2023-06-10T01:56:02;98141.66;;;21.22;92.82
1616;BME280;801;47.982;7.810;2023-06-10T01:58:28;98141.53;;;21.18;92.08
1616;BME280;801;47.982;7.810;2023-06-10T02:00:55;98151.22;;;21.15;90.97
1616;BME280;801;47.982;7.810;2023-06-10T02:03:21;98150.66;;;21.10;91.15
1616;BME280;801;47.982;7.810;2023-06-10T02:05:49;98158.50;;;20.99;91.18
1616;BME280;801;47.982;7.810;2023-06-10T02:08:16;98153.34;;;20.98;91.57
1616;BME280;801;47.982;7.810;2023-06-10T02:10:42;98151.75;;;20.84;91.38
1616;BME280;801;47.982;7.810;2023-06-10T02:13:10;98153.22;;;20.48;93.35
1616;BME280;801;47.982;7.810;2023-06-10T02:15:37;98159.66;;;20.65;93.02
1616;BME280;801;47.982;7.810;2023-06-10T02:18:03;98160.84;;;20.55;92.87
1616;BME280;801;47.982;7.810;2023-06-10T02:20:31;98160.47;;;20.44;94.18
1616;BME280;801;47.982;7.810;2023-06-10T02:22:58;98157.75;;;20.44;94.63
1616;BME280;801;47.982;7.810;2023-06-10T02:25:25;98159.81;;;20.47;94.13
1616;BME280;801;47.982;7.810;2023-06-10T02:27:51;98161.03;;;20.59;93.04
1616;BME280;801;47.982;7.810;2023-06-10T02:30:19;98167.59;;;20.58;94.17
1616;BME280;801;47.982;7.810;2023-06-10T02:32:45;98163.28;;;20.57;93.21
1616;BME280;801;47.982;7.810;2023-06-10T02:35:13;98156.16;;;20.43;94.01
1616;BME280;801;47.982;7.810;2023-06-10T02:37:39;98161.38;;;20.36;94.51
1616;BME280;801;47.982;7.810;2023-06-10T02:40:07;98160.69;;;20.18;95.81
1616;BME280;801;47.982;7.810;2023-06-10T02:42:33;98166.50;;;20.17;96.44
1616;BME280;801;47.982;7.810;2023-06-10T02:45:00;98166.75;;;20.24;95.68
1616;BME280;801;47.982;7.810;2023-06-10T02:47:28;98163.63;;;20.34;94.88
1616;BME280;801;47.982;7.810;2023-06-10T02:49:54;98163.78;;;20.17;97.07
1616;BME280;801;47.982;7.810;2023-06-10T02:52:21;98166.28;;;20.22;95.79
1616;BME280;801;47.982;7.810;2023-06-10T02:54:48;98170.97;;;20.21;95.86
1616;BME280;801;47.982;7.810;2023-06-10T02:57:15;98170.97;;;20.21;98.88
1616;BME280;801;47.982;7.810;2023-06-10T02:59:41;98167.50;;;20.12;100.00
1616;BME280;801;47.982;7.810;2023-06-10T03:02:08;98175.47;;;20.17;100.00
1616;BME280;801;47.982;7.810;2023-06-10T03:04:37;98181.41;;;20.19;100.00
1616;BME280;801;47.982;7.810;2023-06-10T03:07:04;98180.69;;;20.10;100.00
1616;BME280;801;47.982;7.810;2023-06-10T03:09:32;98177.41;;;19.96;100.00
1616;BME280;801;47.982;7.810;2023-06-10T03:11:58;98171.38;;;19.90;100.00
1616;BME280;801;47.982;7.810;2023-06-10T03:14:25;98183.06;;;19.90;100.00
1616;BME280;801;47.982;7.810;2023-06-10T03:16:52;98178.41;;;19.91;100.00
1616;BME280;801;47.982;7.810;2023-06-10T03:19:18;98189.97;;;19.88;100.00
1616;BME280;801;47.982;7.810;2023-06-10T03:21:49;98188.94;;;20.01;100.00
1616;BME280;801;47.982;7.810;2023-06-10T03:24:16;98187.72;;;19.90;100.00
1616;BME280;801;47.982;7.810;2023-06-10T03:26:42;98196.53;;;19.87;100.00
1616;BME280;801;47.982;7.810;2023-06-10T03:29:09;98196.63;;;19.78;100.00
1616;BME280;801;47.982;7.810;2023-06-10T03:31:35;98197.16;;;19.72;100.00
1616;BME280;801;47.982;7.810;2023-06-10T03:34:02;98198.75;;;19.64;100.00
1616;BME280;801;47.982;7.810;2023-06-10T03:36:29;98202.47;;;19.59;100.00
1616;BME280;801;47.982;7.810;2023-06-10T03:38:56;98201.63;;;19.67;100.00
1616;BME280;801;47.982;7.810;2023-06-10T03:41:23;98199.59;;;19.56;100.00
1616;BME280;801;47.982;7.810;2023-06-10T03:43:50;98208.59;;;19.56;100.00
1616;BME280;801;47.982;7.810;2023-06-10T03:46:17;98201.91;;;19.45;100.00
1616;BME280;801;47.982;7.810;2023-06-10T03:48:44;98207.06;;;19.38;100.00
1616;BME280;801;47.982;7.810;2023-06-10T03:51:11;98205.78;;;19.35;100.00
1616;BME280;801;47.982;7.810;2023-06-10T03:53:37;98210.91;;;19.37;100.00
1616;BME280;801;47.982;7.810;2023-06-10T03:56:05;98201.78;;;19.33;100.00
1616;BME280;801;47.982;7.810;2023-06-10T03:58:32;98206.16;;;19.25;100.00
1616;BME280;801;47.982;7.810;2023-06-10T04:00:58;98197.66;;;19.26;100.00
1616;BME280;801;47.982;7.810;2023-06-10T04:03:25;98206.19;;;19.16;100.00
1616;BME280;801;47.982;7.810;2023-06-10T04:05:52;98209.44;;;19.10;100.00
1616;BME280;801;47.982;7.810;2023-06-10T04:08:19;98204.09;;;19.13;100.00
1616;BME280;801;47.982;7.810;2023-06-10T04:10:45;98200.41;;;19.18;100.00
1616;BME280;801;47.982;7.810;2023-06-10T04:13:13;98208.44;;;19.14;100.00
1616;BME280;801;47.982;7.810;2023-06-10T04:15:40;98209.72;;;19.17;100.00
1616;BME280;801;47.982;7.810;2023-06-10T04:18:07;98213.88;;;19.14;100.00
1616;BME280;801;47.982;7.810;2023-06-10T04:20:33;98207.91;;;19.29;100.00
1616;BME280;801;47.982;7.810;2023-06-10T04:23:00;98213.47;;;19.33;100.00
1616;BME280;801;47.982;7.810;2023-06-10T04:25:26;98218.53;;;19.22;100.00
1616;BME280;801;47.982;7.810;2023-06-10T04:27:53;98212.41;;;19.25;100.00
1616;BME280;801;47.982;7.810;2023-06-10T04:30:21;98217.81;;;19.34;100.00
1616;BME280;801;47.982;7.810;2023-06-10T04:32:48;98221.16;;;19.40;100.00
1616;BME280;801;47.982;7.810;2023-06-10T04:35:15;98224.63;;;19.49;100.00
1616;BME280;801;47.982;7.810;2023-06-10T04:37:42;98228.19;;;19.49;100.00
1616;BME280;801;47.982;7.810;2023-06-10T04:40:09;98226.44;;;19.45;100.00
1616;BME280;801;47.982;7.810;2023-06-10T04:42:36;98229.91;;;19.54;100.00
1616;BME280;801;47.982;7.810;2023-06-10T04:45:03;98239.19;;;19.53;100.00
1616;BME280;801;47.982;7.810;2023-06-10T04:47:31;98236.63;;;19.57;100.00
1616;BME280;801;47.982;7.810;2023-06-10T04:49:59;98239.50;;;19.60;100.00
1616;BME280;801;47.982;7.810;2023-06-10T04:52:25;98238.19;;;19.66;100.00
1616;BME280;801;47.982;7.810;2023-06-10T04:54:52;98237.69;;;19.64;100.00
1616;BME280;801;47.982;7.810;2023-06-10T04:57:19;98243.97;;;19.74;100.00
1616;BME280;801;47.982;7.810;2023-06-10T04:59:45;98244.09;;;19.68;100.00
1616;BME280;801;47.982;7.810;2023-06-10T05:02:12;98248.47;;;19.69;100.00
1616;BME280;801;47.982;7.810;2023-06-10T05:04:40;98249.75;;;19.63;100.00
1616;BME280;801;47.982;7.810;2023-06-10T05:07:06;98243.50;;;19.63;100.00
1616;BME280;801;47.982;7.810;2023-06-10T05:09:33;98244.25;;;19.81;100.00
1616;BME280;801;47.982;7.810;2023-06-10T05:12:00;98255.78;;;19.78;100.00
1616;BME280;801;47.982;7.810;2023-06-10T05:14:27;98256.41;;;19.83;100.00
1616;BME280;801;47.982;7.810;2023-06-10T05:16:53;98259.41;;;19.90;100.00
1616;BME280;801;47.982;7.810;2023-06-10T05:19:20;98258.94;;;19.88;100.00
1616;BME280;801;47.982;7.810;2023-06-10T05:21:48;98264.63;;;20.04;100.00
1616;BME280;801;47.982;7.810;2023-06-10T05:24:14;98258.03;;;20.05;100.00
1616;BME280;801;47.982;7.810;2023-06-10T05:26:41;98259.63;;;20.06;100.00
1616;BME280;801;47.982;7.810;2023-06-10T05:29:08;98265.56;;;20.08;100.00
1616;BME280;801;47.982;7.810;2023-06-10T05:31:34;98268.06;;;20.14;100.00
1616;BME280;801;47.982;7.810;2023-06-10T05:34:01;98272.09;;;20.16;100.00
1616;BME280;801;47.982;7.810;2023-06-10T05:36:27;98268.69;;;20.19;100.00
1616;BME280;801;47.982;7.810;2023-06-10T05:38:55;98270.38;;;20.32;100.00
1616;BME280;801;47.982;7.810;2023-06-10T05:41:22;98271.31;;;20.37;100.00
1616;BME280;801;47.982;7.810;2023-06-10T05:43:48;98265.31;;;20.43;100.00
1616;BME280;801;47.982;7.810;2023-06-10T05:46:15;98281.53;;;20.40;100.00
1616;BME280;801;47.982;7.810;2023-06-10T05:48:41;98274.81;;;20.37;100.00
1616;BME280;801;47.982;7.810;2023-06-10T05:51:08;98265.97;;;20.40;100.00
1616;BME280;801;47.982;7.810;2023-06-10T05:53:35;98274.34;;;20.56;100.00
1616;BME280;801;47.982;7.810;2023-06-10T05:56:03;98276.50;;;20.50;100.00
1616;BME280;801;47.982;7.810;2023-06-10T05:58:30;98271.56;;;20.65;100.00
1616;BME280;801;47.982;7.810;2023-06-10T06:00:56;98266.94;;;20.65;100.00
1616;BME280;801;47.982;7.810;2023-06-10T06:03:23;98274.22;;;20.73;100.00
1616;BME280;801;47.982;7.810;2023-06-10T06:05:49;98275.13;;;20.65;100.00
1616;BME280;801;47.982;7.810;2023-06-10T06:08:16;98268.47;;;20.87;100.00
1616;BME280;801;47.982;7.810;2023-06-10T06:10:42;98263.63;;;21.05;100.00
1616;BME280;801;47.982;7.810;2023-06-10T06:13:10;98268.53;;;21.12;100.00
1616;BME280;801;47.982;7.810;2023-06-10T06:15:36;98260.34;;;21.12;100.00
1616;BME280;801;47.982;7.810;2023-06-10T06:18:03;98258.00;;;21.23;100.00
1616;BME280;801;47.982;7.810;2023-06-10T06:20:29;98256.78;;;21.32;100.00
1616;BME280;801;47.982;7.810;2023-06-10T06:22:56;98254.56;;;21.13;100.00
1616;BME280;801;47.982;7.810;2023-06-10T06:25:22;98250.72;;;21.14;100.00
1616;BME280;801;47.982;7.810;2023-06-10T06:27:49;98256.09;;;20.90;100.00
1616;BME280;801;47.982;7.810;2023-06-10T06:30:17;98256.22;;;20.93;100.00
1616;BME280;801;47.982;7.810;2023-06-10T06:32:43;98253.91;;;21.17;100.00
1616;BME280;801;47.982;7.810;2023-06-10T06:35:10;98259.50;;;21.32;100.00
1616;BME280;801;47.982;7.810;2023-06-10T06:37:36;98252.94;;;21.58;100.00
1616;BME280;801;47.982;7.810;2023-06-10T06:40:04;98255.69;;;21.58;100.00
1616;BME280;801;47.982;7.810;2023-06-10T06:42:31;98255.44;;;21.88;100.00
1616;BME280;801;47.982;7.810;2023-06-10T06:44:57;98258.88;;;21.97;99.95
1616;BME280;801;47.982;7.810;2023-06-10T06:47:25;98267.09;;;21.72;100.00
1616;BME280;801;47.982;7.810;2023-06-10T06:49:52;98266.38;;;21.63;100.00
1616;BME280;801;47.982;7.810;2023-06-10T06:52:18;98267.88;;;21.61;100.00
1616;BME280;801;47.982;7.810;2023-06-10T06:54:45;98274.59;;;21.51;100.00
1616;BME280;801;47.982;7.810;2023-06-10T06:57:12;98271.63;;;21.56;100.00
1616;BME280;801;47.982;7.810;2023-06-10T06:59:38;98271.66;;;21.68;100.00
1616;BME280;801;47.982;7.810;2023-06-10T07:02:05;98270.25;;;21.74;100.00
1616;BME280;801;47.982;7.810;2023-06-10T07:04:33;98264.78;;;21.87;100.00
1616;BME280;801;47.982;7.810;2023-06-10T07:07:00;98266.13;;;22.05;100.00
1616;BME280;801;47.982;7.810;2023-06-10T07:09:26;98262.19;;;21.90;100.00
1616;BME280;801;47.982;7.810;2023-06-10T07:11:53;98262.59;;;21.92;100.00
1616;BME280;801;47.982;7.810;2023-06-10T07:14:20;98262.84;;;22.00;100.00
1616;BME280;801;47.982;7.810;2023-06-10T07:16:46;98259.75;;;22.01;100.00
1616;BME280;801;47.982;7.810;2023-06-10T07:19:13;98261.94;;;21.95;100.00
1616;BME280;801;47.982;7.810;2023-06-10T07:21:41;98265.91;;;21.98;100.00
1616;BME280;801;47.982;7.810;2023-06-10T07:24:08;98259.75;;;22.01;100.00
1616;BME280;801;47.982;7.810;2023-06-10T07:26:34;98267.84;;;22.10;100.00
1616;BME280;801;47.982;7.810;2023-06-10T07:29:01;98263.19;;;22.10;100.00
1616;BME280;801;47.982;7.810;2023-06-10T07:31:28;98267.94;;;22.26;100.00
1616;BME280;801;47.982;7.810;2023-06-10T07:33:54;98267.38;;;22.20;100.00
1616;BME280;801;47.982;7.810;2023-06-10T07:36:21;98251.09;;;21.99;100.00
1616;BME280;801;47.982;7.810;2023-06-10T07:38:49;98269.53;;;22.14;100.00
1616;BME280;801;47.982;7.810;2023-06-10T07:41:15;98268.53;;;22.31;100.00
1616;BME280;801;47.982;7.810;2023-06-10T07:43:43;98265.53;;;22.36;100.00
1616;BME280;801;47.982;7.810;2023-06-10T07:46:10;98257.31;;;22.49;100.00
1616;BME280;801;47.982;7.810;2023-06-10T07:48:36;98260.63;;;22.42;100.00
1616;BME280;801;47.982;7.810;2023-06-10T07:51:03;98267.34;;;22.45;100.00
1616;BME280;801;47.982;7.810;2023-06-10T07:53:29;98264.66;;;22.61;100.00
1616;BME280;801;47.982;7.810;2023-06-10T07:55:57;98265.13;;;22.63;100.00
1616;BME280;801;47.982;7.810;2023-06-10T07:58:24;98262.28;;;22.59;100.00
1616;BME280;801;47.982;7.810;2023-06-10T08:00:50;98266.50;;;22.56;100.00
1616;BME280;801;47.982;7.810;2023-06-10T08:03:17;98263.38;;;22.70;100.00
1616;BME280;801;47.982;7.810;2023-06-10T08:05:43;98269.34;;;22.60;100.00
1616;BME280;801;47.982;7.810;2023-06-10T08:08:10;98277.63;;;22.76;99.82
1616;BME280;801;47.982;7.810;2023-06-10T08:10:36;98281.78;;;22.86;98.28
1616;BME280;801;47.982;7.810;2023-06-10T08:13:04;98281.97;;;23.05;97.01
1616;BME280;801;47.982;7.810;2023-06-10T08:15:30;98276.13;;;22.78;100.00
1616;BME280;801;47.982;7.810;2023-06-10T08:17:57;98286.91;;;22.99;100.00
1616;BME280;801;47.982;7.810;2023-06-10T08:20:24;98285.94;;;23.08;100.00
1616;BME280;801;47.982;7.810;2023-06-10T08:22:50;98283.75;;;23.13;100.00
1616;BME280;801;47.982;7.810;2023-06-10T08:25:17;98279.34;;;23.25;100.00
1616;BME280;801;47.982;7.810;2023-06-10T08:27:43;98279.66;;;23.51;100.00
1616;BME280;801;47.982;7.810;2023-06-10T08:30:12;98274.94;;;23.68;99.85
1616;BME280;801;47.982;7.810;2023-06-10T08:32:38;98270.50;;;23.95;96.62
1616;BME280;801;47.982;7.810;2023-06-10T08:35:05;98270.81;;;23.58;97.49
1616;BME280;801;47.982;7.810;2023-06-10T08:37:31;98280.34;;;23.48;99.93
1616;BME280;801;47.982;7.810;2023-06-10T08:39:58;98269.97;;;23.41;99.73
1616;BME280;801;47.982;7.810;2023-06-10T08:42:28;98274.16;;;23.51;100.00
1616;BME280;801;47.982;7.810;2023-06-10T08:44:56;98276.28;;;23.58;97.82
1616;BME280;801;47.982;7.810;2023-06-10T08:47:25;98268.22;;;23.65;98.23
1616;BME280;801;47.982;7.810;2023-06-10T08:49:54;98266.63;;;23.64;96.70
1616;BME280;801;47.982;7.810;2023-06-10T08:52:22;98261.09;;;23.76;95.07
1616;BME280;801;47.982;7.810;2023-06-10T08:54:54;98271.50;;;23.87;94.29
1616;BME280;801;47.982;7.810;2023-06-10T08:57:23;98270.19;;;23.80;93.71
1616;BME280;801;47.982;7.810;2023-06-10T08:59:50;98267.50;;;24.00;93.26
1616;BME280;801;47.982;7.810;2023-06-10T09:02:19;98257.78;;;23.87;93.21
1616;BME280;801;47.982;7.810;2023-06-10T09:04:47;98258.88;;;24.17;92.57
1616;BME280;801;47.982;7.810;2023-06-10T09:07:16;98253.22;;;24.10;92.54
1616;BME280;801;47.982;7.810;2023-06-10T09:09:43;98258.81;;;24.33;91.01
1616;BME280;801;47.982;7.810;2023-06-10T09:12:09;98257.78;;;24.22;89.98
1616;BME280;801;47.982;7.810;2023-06-10T09:14:36;98248.50;;;24.46;88.69
1616;BME280;801;47.982;7.810;2023-06-10T09:17:03;98257.31;;;24.36;88.00
1616;BME280;801;47.982;7.810;2023-06-10T09:19:30;98251.88;;;24.39;89.66
1616;BME280;801;47.982;7.810;2023-06-10T09:21:58;98243.84;;;25.09;89.06
1616;BME280;801;47.982;7.810;2023-06-10T09:24:25;98247.56;;;25.39;87.86
1616;BME280;801;47.982;7.810;2023-06-10T09:27:02;98250.84;;;25.48;82.36
1616;BME280;801;47.982;7.810;2023-06-10T09:29:29;98252.69;;;25.41;82.74
1616;BME280;801;47.982;7.810;2023-06-10T09:31:55;98246.50;;;25.24;84.73
1616;BME280;801;47.982;7.810;2023-06-10T09:34:25;98243.31;;;25.22;84.71
1616;BME280;801;47.982;7.810;2023-06-10T09:36:51;98236.06;;;25.57;84.67
1616;BME280;801;47.982;7.810;2023-06-10T09:39:19;98243.00;;;25.97;79.66
1616;BME280;801;47.982;7.810;2023-06-10T09:41:46;98245.25;;;25.41;81.84
1616;BME280;801;47.982;7.810;2023-06-10T09:44:13;98238.66;;;25.23;83.74
1616;BME280;801;47.982;7.810;2023-06-10T09:46:40;98245.31;;;25.72;82.61
1616;BME280;801;47.982;7.810;2023-06-10T09:49:07;98232.19;;;25.61;81.05
1616;BME280;801;47.982;7.810;2023-06-10T09:51:34;98238.56;;;25.42;80.05
1616;BME280;801;47.982;7.810;2023-06-10T09:54:02;98244.41;;;25.64;80.44
1616;BME280;801;47.982;7.810;2023-06-10T09:56:34;98237.59;;;25.54;79.26
1616;BME280;801;47.982;7.810;2023-06-10T09:59:01;98236.75;;;25.77;78.67
1616;BME280;801;47.982;7.810;2023-06-10T10:01:30;98235.53;;;25.74;78.97
1616;BME280;801;47.982;7.810;2023-06-10T10:03:58;98243.03;;;26.00;79.13
1616;BME280;801;47.982;7.810;2023-06-10T10:06:25;98237.25;;;26.09;77.40
1616;BME280;801;47.982;7.810;2023-06-10T10:08:52;98244.59;;;26.58;76.31
1616;BME280;801;47.982;7.810;2023-06-10T10:11:20;98240.56;;;26.86;69.92
1616;BME280;801;47.982;7.810;2023-06-10T10:13:49;98241.84;;;26.58;70.44
1616;BME280;801;47.982;7.810;2023-06-10T10:16:18;98237.94;;;26.59;71.29
1616;BME280;801;47.982;7.810;2023-06-10T10:18:49;98240.56;;;26.52;72.50
1616;BME280;801;47.982;7.810;2023-06-10T10:21:22;98247.31;;;26.88;73.28
1616;BME280;801;47.982;7.810;2023-06-10T10:23:56;98236.44;;;27.03;72.91
1616;BME280;801;47.982;7.810;2023-06-10T10:26:26;98233.25;;;27.38;74.62
1616;BME280;801;47.982;7.810;2023-06-10T10:29:00;98235.31;;;27.52;72.28
1616;BME280;801;47.982;7.810;2023-06-10T10:31:32;98225.63;;;27.24;73.35
1616;BME280;801;47.982;7.810;2023-06-10T10:34:04;98222.72;;;27.54;72.91
1616;BME280;801;47.982;7.810;2023-06-10T10:36:32;98233.66;;;27.40;71.34
1616;BME280;801;47.982;7.810;2023-06-10T10:38:59;98235.63;;;27.43;69.86
1616;BME280;801;47.982;7.810;2023-06-10T10:41:29;98227.69;;;27.86;69.94
1616;BME280;801;47.982;7.810;2023-06-10T10:43:58;98227.00;;;27.97;65.68
1616;BME280;801;47.982;7.810;2023-06-10T10:46:25;98219.72;;;27.74;67.71
1616;BME280;801;47.982;7.810;2023-06-10T10:48:52;98222.38;;;27.60;67.32
1616;BME280;801;47.982;7.810;2023-06-10T10:51:19;98225.44;;;27.47;67.71
1616;BME280;801;47.982;7.810;2023-06-10T10:54:10;98214.84;;;27.53;65.55
1616;BME280;801;47.982;7.810;2023-06-10T10:56:37;98216.34;;;27.43;64.98
1616;BME280;801;47.982;7.810;2023-06-10T10:59:06;98213.88;;;27.31;67.42
1616;BME280;801;47.982;7.810;2023-06-10T11:01:42;98198.34;;;27.64;66.28
1616;BME280;801;47.982;7.810;2023-06-10T11:04:11;98208.59;;;27.63;64.83
1616;BME280;801;47.982;7.810;2023-06-10T11:06:38;98204.53;;;27.98;62.77
1616;BME280;801;47.982;7.810;2023-06-10T11:09:26;98208.66;;;28.36;61.41
1616;BME280;801;47.982;7.810;2023-06-10T11:11:56;98210.69;;;28.47;60.58
1616;BME280;801;47.982;7.810;2023-06-10T11:14:27;98202.69;;;28.27;58.76
1616;BME280;801;47.982;7.810;2023-06-10T11:16:57;98210.47;;;28.04;61.06
1616;BME280;801;47.982;7.810;2023-06-10T11:19:34;98201.16;;;28.33;61.08
1616;BME280;801;47.982;7.810;2023-06-10T11:22:01;98195.22;;;28.35;59.66
1616;BME280;801;47.982;7.810;2023-06-10T11:24:28;98198.78;;;28.32;57.79
1616;BME280;801;47.982;7.810;2023-06-10T11:27:14;98203.50;;;28.31;58.52
1616;BME280;801;47.982;7.810;2023-06-10T11:29:55;98197.56;;;28.22;57.60
1616;BME280;801;47.982;7.810;2023-06-10T11:32:21;98208.78;;;27.85;58.94
1616;BME280;801;47.982;7.810;2023-06-10T11:34:52;98195.06;;;27.96;59.11
1616;BME280;801;47.982;7.810;2023-06-10T11:37:18;98194.78;;;28.22;58.60
1616;BME280;801;47.982;7.810;2023-06-10T11:39:45;98186.06;;;28.17;57.19
1616;BME280;801;47.982;7.810;2023-06-10T11:42:12;98190.66;;;27.87;59.14
1616;BME280;801;47.982;7.810;2023-06-10T11:44:38;98197.00;;;27.95;58.45
1616;BME280;801;47.982;7.810;2023-06-10T11:47:14;98179.81;;;28.30;58.33
1616;BME280;801;47.982;7.810;2023-06-10T11:49:41;98185.44;;;28.48;56.95
1616;BME280;801;47.982;7.810;2023-06-10T11:52:07;98181.88;;;28.48;56.19
1616;BME280;801;47.982;7.810;2023-06-10T11:54:34;98181.41;;;28.31;55.60
1616;BME280;801;47.982;7.810;2023-06-10T11:57:00;98176.50;;;27.96;58.07
1616;BME280;801;47.982;7.810;2023-06-10T11:59:28;98184.56;;;28.30;57.70
1616;BME280;801;47.982;7.810;2023-06-10T12:01:55;98183.91;;;28.72;57.66
1616;BME280;801;47.982;7.810;2023-06-10T12:04:24;98183.00;;;28.36;54.93
1616;BME280;801;47.982;7.810;2023-06-10T12:06:53;98186.16;;;28.34;55.34
1616;BME280;801;47.982;7.810;2023-06-10T12:09:20;98168.09;;;28.62;53.17
1616;BME280;801;47.982;7.810;2023-06-10T12:11:49;98179.19;;;28.69;53.42
1616;BME280;801;47.982;7.810;2023-06-10T12:14:52;98172.94;;;29.08;52.58
1616;BME280;801;47.982;7.810;2023-06-10T12:17:27;98174.94;;;29.29;51.83
1616;BME280;801;47.982;7.810;2023-06-10T12:20:05;98166.19;;;29.77;51.23
1616;BME280;801;47.982;7.810;2023-06-10T12:22:36;98165.00;;;29.82;48.53
1616;BME280;801;47.982;7.810;2023-06-10T12:25:05;98162.50;;;30.20;48.96
1616;BME280;801;47.982;7.810;2023-06-10T12:27:32;98164.00;;;30.42;46.78
1616;BME280;801;47.982;7.810;2023-06-10T12:30:00;98153.13;;;29.82;46.56
1616;BME280;801;47.982;7.810;2023-06-10T12:32:37;98162.25;;;29.61;46.93
1616;BME280;801;47.982;7.810;2023-06-10T12:35:06;98159.13;;;29.37;47.95
1616;BME280;801;47.982;7.810;2023-06-10T12:37:33;98159.50;;;29.10;48.69
1616;BME280;801;47.982;7.810;2023-06-10T12:40:00;98155.53;;;29.11;48.39
1616;BME280;801;47.982;7.810;2023-06-10T12:42:28;98158.31;;;29.15;48.78
1616;BME280;801;47.982;7.810;2023-06-10T12:44:55;98155.56;;;29.18;46.43
1616;BME280;801;47.982;7.810;2023-06-10T12:47:29;98157.94;;;29.16;48.29
1616;BME280;801;47.982;7.810;2023-06-10T12:49:58;98153.97;;;28.96;49.22
1616;BME280;801;47.982;7.810;2023-06-10T12:52:26;98169.38;;;29.08;51.23
1616;BME280;801;47.982;7.810;2023-06-10T12:54:52;98168.19;;;29.27;52.24
1616;BME280;801;47.982;7.810;2023-06-10T12:57:20;98168.97;;;29.06;59.73
1616;BME280;801;47.982;7.810;2023-06-10T12:59:46;98177.19;;;28.59;65.88
1616;BME280;801;47.982;7.810;2023-06-10T13:02:17;98179.47;;;28.43;74.41
1616;BME280;801;47.982;7.810;2023-06-10T13:04:44;98174.41;;;28.52;76.69
1616;BME280;801;47.982;7.810;2023-06-10T13:07:11;98163.41;;;28.81;74.43
1616;BME280;801;47.982;7.810;2023-06-10T13:09:39;98153.66;;;28.03;73.30
1616;BME280;801;47.982;7.810;2023-06-10T13:12:07;98149.97;;;27.25;79.19
1616;BME280;801;47.982;7.810;2023-06-10T13:14:35;98143.34;;;26.89;80.69
1616;BME280;801;47.982;7.810;2023-06-10T13:17:02;98143.97;;;26.71;82.41
1616;BME280;801;47.982;7.810;2023-06-10T13:19:30;98149.97;;;27.25;81.51
1616;BME280;801;47.982;7.810;2023-06-10T13:21:57;98132.22;;;27.78;80.67
1616;BME280;801;47.982;7.810;2023-06-10T13:24:24;98139.97;;;28.31;79.34
1616;BME280;801;47.982;7.810;2023-06-10T13:26:52;98137.31;;;28.60;78.54
1616;BME280;801;47.982;7.810;2023-06-10T13:29:20;98138.50;;;28.73;78.42
1616;BME280;801;47.982;7.810;2023-06-10T13:31:46;98136.56;;;28.85;75.08